sensor_id;sensor_type;location;lat;lon;timestamp;temperature;humidity
17968;DHT22;9109;48.050;11.696;2023-02-11T04:47:27;-1.90;99.90
17968;DHT22;9109;48.050;11.696;2023-02-11T04:50:29;-1.90;99.90
17968;DHT22;9109;48.050;11.696;2023-02-11T04:53:31;-1.80;99.90
17968;DHT22;9109;48.050;11.696;2023-02-11T04:56:33;-1.80;99.90
17968;DHT22;9109;48.050;11.696;2023-02-11T04:59:35;-1.90;99.90
17968;DHT22;9109;48.050;11.696;2023-02-11T05:02:39;-2.00;99.90
17968;DHT22;9109;48.050;11.696;2023-02-11T05:05:41;-1.90;99.90
17968;DHT22;9109;48.050;11.696;2023-02-11T05:08:43;-1.90;99.90
17968;DHT22;9109;48.050;11.696;2023-02-11T05:11:45;-1.90;99.90
17968;DHT22;9109;48.050;11.696;2023-02-11T05:14:47;-1.80;99.90
17968;DHT22;9109;48.050;11.696;2023-02-11T05:17:50;-1.80;99.90
17968;DHT22;9109;48.050;11.696;2023-02-11T05:20:52;-1.70;99.90
17968;DHT22;9109;48.050;11.696;2023-02-11T05:23:54;-1.80;99.90
17968;DHT22;9109;48.050;11.696;2023-02-11T05:26:56;-1.80;99.90
17968;DHT22;9109;48.050;11.696;2023-02-11T05:29:58;-1.80;99.90
17968;DHT22;9109;48.050;11.696;2023-02-11T05:33:01;-1.90;99.90
17968;DHT22;9109;48.050;11.696;2023-02-11T05:36:05;-1.90;99.90
17968;DHT22;9109;48.050;11.696;2023-02-11T05:39:08;-1.90;99.90
17968;DHT22;9109;48.050;11.696;2023-02-11T05:42:09;-1.90;99.90
17968;DHT22;9109;48.050;11.696;2023-02-11T05:45:11;-2.00;99.90
17968;DHT22;9109;48.050;11.696;2023-02-11T05:48:15;-2.10;99.90
17968;DHT22;9109;48.050;11.696;2023-02-11T05:51:17;-2.10;99.90
17968;DHT22;9109;48.050;11.696;2023-02-11T05:54:19;-2.20;99.90
17968;DHT22;9109;48.050;11.696;2023-02-11T05:57:21;-2.10;99.90
17968;DHT22;9109;48.050;11.696;2023-02-11T06:00:23;-2.10;99.90
17968;DHT22;9109;48.050;11.696;2023-02-11T06:03:26;-2.20;99.90
17968;DHT22;9109;48.050;11.696;2023-02-11T06:06:28;-2.10;99.90
17968;DHT22;9109;48.050;11.696;2023-02-11T06:09:30;-2.00;99.90
17968;DHT22;9109;48.050;11.696;2023-02-11T06:12:32;-2.00;99.90
17968;DHT22;9109;48.050;11.696;2023-02-11T06:15:34;-2.00;99.90
17968;DHT22;9109;48.050;11.696;2023-02-11T06:18:37;-2.00;99.90
17968;DHT22;9109;48.050;11.696;2023-02-11T06:21:39;-2.00;99.90
17968;DHT22;9109;48.050;11.696;2023-02-11T06:24:41;-2.10;99.90
17968;DHT22;9109;48.050;11.696;2023-02-11T06:27:43;-2.00;99.90
17968;DHT22;9109;48.050;11.696;2023-02-11T06:30:45;-2.00;99.90
17968;DHT22;9109;48.050;11.696;2023-02-11T06:33:48;-2.00;99.90
17968;DHT22;9109;48.050;11.696;2023-02-11T06:36:50;-1.90;99.90
17968;DHT22;9109;48.050;11.696;2023-02-11T06:39:55;-1.90;99.90
17968;DHT22;9109;48.050;11.696;2023-02-11T06:42:57;-1.90;99.90
17968;DHT22;9109;48.050;11.696;2023-02-11T06:45:58;-1.80;99.90
17968;DHT22;9109;48.050;11.696;2023-02-11T06:49:02;-1.80;99.90
17968;DHT22;9109;48.050;11.696;2023-02-11T06:52:04;-1.70;99.90
17968;DHT22;9109;48.050;11.696;2023-02-11T06:55:06;-1.70;99.90
17968;DHT22;9109;48.050;11.696;2023-02-11T06:58:08;-1.70;99.90
17968;DHT22;9109;48.050;11.696;2023-02-11T07:01:11;-1.70;99.90
17968;DHT22;9109;48.050;11.696;2023-02-11T07:04:15;-1.60;99.90
17968;DHT22;9109;48.050;11.696;2023-02-11T07:07:16;-1.60;99.90
17968;DHT22;9109;48.050;11.696;2023-02-11T07:10:18;-1.60;99.90
17968;DHT22;9109;48.050;11.696;2023-02-11T07:13:20;-1.60;99.90
17968;DHT22;9109;48.050;11.696;2023-02-11T07:16:22;-1.50;99.90
17968;DHT22;9109;48.050;11.696;2023-02-11T07:19:25;-1.40;99.90
17968;DHT22;9109;48.050;11.696;2023-02-11T07:22:27;-1.40;99.90
17968;DHT22;9109;48.050;11.696;2023-02-11T07:25:29;-1.30;99.90
17968;DHT22;9109;48.050;11.696;2023-02-11T07:28:33;-1.30;99.90
17968;DHT22;9109;48.050;11.696;2023-02-11T07:31:35;-1.20;99.90
17968;DHT22;9109;48.050;11.696;2023-02-11T07:34:39;-1.20;99.90
17968;DHT22;9109;48.050;11.696;2023-02-11T07:37:41;-1.10;99.90
17968;DHT22;9109;48.050;11.696;2023-02-11T07:40:43;-1.10;99.90
17968;DHT22;9109;48.050;11.696;2023-02-11T07:43:45;-1.00;99.90
17968;DHT22;9109;48.050;11.696;2023-02-11T07:46:47;-1.00;99.90
17968;DHT22;9109;48.050;11.696;2023-02-11T07:49:51;-1.00;99.90
17968;DHT22;9109;48.050;11.696;2023-02-11T07:52:52;-0.90;99.90
17968;DHT22;9109;48.050;11.696;2023-02-11T07:55:54;-0.80;99.90
17968;DHT22;9109;48.050;11.696;2023-02-11T07:59:00;-0.70;99.90
17968;DHT22;9109;48.050;11.696;2023-02-11T08:02:02;-0.70;99.90
17968;DHT22;9109;48.050;11.696;2023-02-11T08:05:06;-0.60;99.90
17968;DHT22;9109;48.050;11.696;2023-02-11T08:08:08;-0.60;99.90
17968;DHT22;9109;48.050;11.696;2023-02-11T08:11:13;-0.50;99.90
17968;DHT22;9109;48.050;11.696;2023-02-11T08:14:15;-0.40;99.90
17968;DHT22;9109;48.050;11.696;2023-02-11T08:17:17;-0.40;99.90
17968;DHT22;9109;48.050;11.696;2023-02-11T08:20:20;-0.40;99.90
17968;DHT22;9109;48.050;11.696;2023-02-11T08:23:22;-0.40;99.90
17968;DHT22;9109;48.050;11.696;2023-02-11T08:26:27;-0.30;99.90
17968;DHT22;9109;48.050;11.696;2023-02-11T08:29:29;-0.20;99.90
17968;DHT22;9109;48.050;11.696;2023-02-11T08:32:33;-0.10;99.90
17968;DHT22;9109;48.050;11.696;2023-02-11T08:35:40;0.10;99.90
17968;DHT22;9109;48.050;11.696;2023-02-11T08:38:42;0.20;99.90
17968;DHT22;9109;48.050;11.696;2023-02-11T08:41:45;0.30;99.90
17968;DHT22;9109;48.050;11.696;2023-02-11T08:44:48;0.50;99.90
17968;DHT22;9109;48.050;11.696;2023-02-11T08:47:50;0.50;99.90
17968;DHT22;9109;48.050;11.696;2023-02-11T08:50:53;0.50;99.90
17968;DHT22;9109;48.050;11.696;2023-02-11T08:53:56;0.60;99.90
17968;DHT22;9109;48.050;11.696;2023-02-11T08:56:58;0.80;99.90
17968;DHT22;9109;48.050;11.696;2023-02-11T09:00:01;0.90;99.90
17968;DHT22;9109;48.050;11.696;2023-02-11T09:03:09;0.90;99.90
17968;DHT22;9109;48.050;11.696;2023-02-11T09:06:13;0.90;99.90
17968;DHT22;9109;48.050;11.696;2023-02-11T09:09:17;1.10;99.90
17968;DHT22;9109;48.050;11.696;2023-02-11T09:12:19;1.20;99.90
17968;DHT22;9109;48.050;11.696;2023-02-11T09:15:21;1.30;99.90
17968;DHT22;9109;48.050;11.696;2023-02-11T09:18:23;1.30;99.60
17968;DHT22;9109;48.050;11.696;2023-02-11T09:21:27;1.30;99.40
17968;DHT22;9109;48.050;11.696;2023-02-11T09:24:29;1.40;99.00
17968;DHT22;9109;48.050;11.696;2023-02-11T09:27:31;1.50;99.00
17968;DHT22;9109;48.050;11.696;2023-02-11T09:30:33;1.60;99.20
17968;DHT22;9109;48.050;11.696;2023-02-11T09:33:37;1.60;99.00
17968;DHT22;9109;48.050;11.696;2023-02-11T09:36:48;1.50;98.70
17968;DHT22;9109;48.050;11.696;2023-02-11T09:39:50;1.50;98.50
17968;DHT22;9109;48.050;11.696;2023-02-11T09:42:56;1.60;98.10
17968;DHT22;9109;48.050;11.696;2023-02-11T09:46:12;1.60;97.30
17968;DHT22;9109;48.050;11.696;2023-02-11T09:49:19;1.70;96.70
17968;DHT22;9109;48.050;11.696;2023-02-11T09:52:34;1.90;96.30
17968;DHT22;9109;48.050;11.696;2023-02-11T09:55:40;2.00;95.90
17968;DHT22;9109;48.050;11.696;2023-02-11T09:58:43;2.10;95.70
17968;DHT22;9109;48.050;11.696;2023-02-11T10:01:49;2.20;95.50
17968;DHT22;9109;48.050;11.696;2023-02-11T10:05:10;2.30;95.40
17968;DHT22;9109;48.050;11.696;2023-02-11T10:08:46;2.40;95.70
17968;DHT22;9109;48.050;11.696;2023-02-11T10:12:16;2.50;95.50
17968;DHT22;9109;48.050;11.696;2023-02-11T10:15:27;2.50;95.00
17968;DHT22;9109;48.050;11.696;2023-02-11T10:18:50;2.60;93.90
17968;DHT22;9109;48.050;11.696;2023-02-11T10:22:06;2.60;93.50
17968;DHT22;9109;48.050;11.696;2023-02-11T10:25:21;2.80;93.80
17968;DHT22;9109;48.050;11.696;2023-02-11T10:28:28;3.00;93.30
17968;DHT22;9109;48.050;11.696;2023-02-11T10:31:36;3.20;92.60
17968;DHT22;9109;48.050;11.696;2023-02-11T10:34:59;3.20;92.30
17968;DHT22;9109;48.050;11.696;2023-02-11T10:38:05;3.20;91.40
17968;DHT22;9109;48.050;11.696;2023-02-11T10:41:14;3.20;91.20
17968;DHT22;9109;48.050;11.696;2023-02-11T10:44:27;3.20;91.60
17968;DHT22;9109;48.050;11.696;2023-02-11T10:47:35;3.30;91.40
17968;DHT22;9109;48.050;11.696;2023-02-11T10:50:38;3.30;91.10
17968;DHT22;9109;48.050;11.696;2023-02-11T10:53:40;3.30;90.80
17968;DHT22;9109;48.050;11.696;2023-02-11T10:56:46;3.30;90.40
17968;DHT22;9109;48.050;11.696;2023-02-11T10:59:59;3.20;90.50
17968;DHT22;9109;48.050;11.696;2023-02-11T11:03:04;3.30;89.90
17968;DHT22;9109;48.050;11.696;2023-02-11T11:06:08;3.40;90.00
17968;DHT22;9109;48.050;11.696;2023-02-11T11:09:26;3.60;89.30
17968;DHT22;9109;48.050;11.696;2023-02-11T11:12:46;3.80;88.60
17968;DHT22;9109;48.050;11.696;2023-02-11T11:16:14;3.90;88.30
17968;DHT22;9109;48.050;11.696;2023-02-11T11:19:21;3.90;87.70
17968;DHT22;9109;48.050;11.696;2023-02-11T11:22:23;4.00;85.90
17968;DHT22;9109;48.050;11.696;2023-02-11T11:25:26;4.00;87.60
17968;DHT22;9109;48.050;11.696;2023-02-11T11:28:33;4.10;88.10
17968;DHT22;9109;48.050;11.696;2023-02-11T11:31:46;4.20;87.90
17968;DHT22;9109;48.050;11.696;2023-02-11T11:34:50;4.20;87.50
17968;DHT22;9109;48.050;11.696;2023-02-11T11:37:54;4.20;86.30
17968;DHT22;9109;48.050;11.696;2023-02-11T11:41:18;4.20;85.70
17968;DHT22;9109;48.050;11.696;2023-02-11T11:44:27;4.20;84.90
17968;DHT22;9109;48.050;11.696;2023-02-11T11:47:35;4.30;84.70
17968;DHT22;9109;48.050;11.696;2023-02-11T11:50:42;4.40;85.20
17968;DHT22;9109;48.050;11.696;2023-02-11T11:53:52;4.60;84.90
17968;DHT22;9109;48.050;11.696;2023-02-11T11:57:01;4.60;84.20
17968;DHT22;9109;48.050;11.696;2023-02-11T12:00:13;4.70;82.50
17968;DHT22;9109;48.050;11.696;2023-02-11T12:03:37;4.70;82.70
17968;DHT22;9109;48.050;11.696;2023-02-11T12:06:50;4.80;82.20
17968;DHT22;9109;48.050;11.696;2023-02-11T12:10:18;5.00;82.70
17968;DHT22;9109;48.050;11.696;2023-02-11T12:13:33;5.20;80.80
17968;DHT22;9109;48.050;11.696;2023-02-11T12:16:49;5.40;77.40
17968;DHT22;9109;48.050;11.696;2023-02-11T12:20:03;5.40;78.40
17968;DHT22;9109;48.050;11.696;2023-02-11T12:23:36;5.50;76.40
17968;DHT22;9109;48.050;11.696;2023-02-11T12:26:45;5.50;75.70
17968;DHT22;9109;48.050;11.696;2023-02-11T12:29:57;5.60;76.60
17968;DHT22;9109;48.050;11.696;2023-02-11T12:33:11;5.50;76.90
17968;DHT22;9109;48.050;11.696;2023-02-11T12:36:26;5.40;78.20
17968;DHT22;9109;48.050;11.696;2023-02-11T12:39:36;5.30;78.00
17968;DHT22;9109;48.050;11.696;2023-02-11T12:42:50;5.30;79.60
17968;DHT22;9109;48.050;11.696;2023-02-11T12:46:33;5.30;78.90
17968;DHT22;9109;48.050;11.696;2023-02-11T12:50:01;5.30;78.70
17968;DHT22;9109;48.050;11.696;2023-02-11T12:53:16;5.40;80.50
17968;DHT22;9109;48.050;11.696;2023-02-11T12:56:26;5.50;79.40
17968;DHT22;9109;48.050;11.696;2023-02-11T12:59:39;5.60;77.40
17968;DHT22;9109;48.050;11.696;2023-02-11T13:02:46;5.70;77.20
17968;DHT22;9109;48.050;11.696;2023-02-11T13:05:53;5.80;74.60
17968;DHT22;9109;48.050;11.696;2023-02-11T13:08:59;5.90;73.30
17968;DHT22;9109;48.050;11.696;2023-02-11T13:12:03;5.90;72.60
17968;DHT22;9109;48.050;11.696;2023-02-11T13:15:27;5.80;73.30
17968;DHT22;9109;48.050;11.696;2023-02-11T13:18:44;5.80;73.70
17968;DHT22;9109;48.050;11.696;2023-02-11T13:22:11;5.90;73.20
17968;DHT22;9109;48.050;11.696;2023-02-11T13:25:21;5.90;75.60
17968;DHT22;9109;48.050;11.696;2023-02-11T13:28:37;5.80;74.90
17968;DHT22;9109;48.050;11.696;2023-02-11T13:31:41;5.80;75.40
17968;DHT22;9109;48.050;11.696;2023-02-11T13:34:56;5.70;76.00
17968;DHT22;9109;48.050;11.696;2023-02-11T13:38:02;5.70;74.90
17968;DHT22;9109;48.050;11.696;2023-02-11T13:41:14;5.80;74.90
17968;DHT22;9109;48.050;11.696;2023-02-11T13:44:24;5.90;74.60
17968;DHT22;9109;48.050;11.696;2023-02-11T13:47:30;6.10;74.60
17968;DHT22;9109;48.050;11.696;2023-02-11T13:50:37;6.40;71.30
17968;DHT22;9109;48.050;11.696;2023-02-11T13:53:46;6.50;68.00
17968;DHT22;9109;48.050;11.696;2023-02-11T14:00:47;6.70;68.30
17968;DHT22;9109;48.050;11.696;2023-02-11T14:04:12;6.60;68.60
17968;DHT22;9109;48.050;11.696;2023-02-11T14:07:36;6.50;69.50
17968;DHT22;9109;48.050;11.696;2023-02-11T14:11:45;6.60;68.10
17968;DHT22;9109;48.050;11.696;2023-02-11T14:15:18;6.50;69.40
17968;DHT22;9109;48.050;11.696;2023-02-11T14:18:35;6.50;68.60
17968;DHT22;9109;48.050;11.696;2023-02-11T14:21:38;6.50;68.10
17968;DHT22;9109;48.050;11.696;2023-02-11T14:24:48;6.50;70.20
17968;DHT22;9109;48.050;11.696;2023-02-11T14:27:55;6.40;69.20
17968;DHT22;9109;48.050;11.696;2023-02-11T14:31:03;6.30;68.60
17968;DHT22;9109;48.050;11.696;2023-02-11T14:34:34;6.40;67.40
17968;DHT22;9109;48.050;11.696;2023-02-11T14:37:44;6.40;67.40
17968;DHT22;9109;48.050;11.696;2023-02-11T14:40:51;6.60;66.90
17968;DHT22;9109;48.050;11.696;2023-02-11T14:43:58;6.60;67.80
17968;DHT22;9109;48.050;11.696;2023-02-11T14:47:01;6.50;67.80
17968;DHT22;9109;48.050;11.696;2023-02-11T14:50:05;6.40;67.30
17968;DHT22;9109;48.050;11.696;2023-02-11T14:53:13;6.40;67.80
17968;DHT22;9109;48.050;11.696;2023-02-11T14:56:20;6.40;68.70
17968;DHT22;9109;48.050;11.696;2023-02-11T14:59:25;6.50;69.00
17968;DHT22;9109;48.050;11.696;2023-02-11T15:02:31;6.60;67.90
17968;DHT22;9109;48.050;11.696;2023-02-11T15:05:34;6.60;66.90
17968;DHT22;9109;48.050;11.696;2023-02-11T15:08:39;6.60;66.30
17968;DHT22;9109;48.050;11.696;2023-02-11T15:11:45;6.60;66.60
17968;DHT22;9109;48.050;11.696;2023-02-11T15:14:51;6.70;66.10
17968;DHT22;9109;48.050;11.696;2023-02-11T15:17:56;6.70;66.30
17968;DHT22;9109;48.050;11.696;2023-02-11T15:20:59;6.70;67.60
17968;DHT22;9109;48.050;11.696;2023-02-11T15:24:03;6.70;66.80
17968;DHT22;9109;48.050;11.696;2023-02-11T15:27:11;6.60;67.30
17968;DHT22;9109;48.050;11.696;2023-02-11T15:30:28;6.60;66.80
17968;DHT22;9109;48.050;11.696;2023-02-11T15:33:31;6.60;67.60
17968;DHT22;9109;48.050;11.696;2023-02-11T15:36:33;6.60;69.20
17968;DHT22;9109;48.050;11.696;2023-02-11T15:39:37;6.50;68.90
17968;DHT22;9109;48.050;11.696;2023-02-11T15:42:51;6.50;68.60
17968;DHT22;9109;48.050;11.696;2023-02-11T15:45:57;6.50;69.80
17968;DHT22;9109;48.050;11.696;2023-02-11T15:49:01;6.40;69.90
17968;DHT22;9109;48.050;11.696;2023-02-11T15:52:03;6.30;70.50
17968;DHT22;9109;48.050;11.696;2023-02-11T15:55:05;6.30;70.70
17968;DHT22;9109;48.050;11.696;2023-02-11T15:58:13;6.30;70.50
17968;DHT22;9109;48.050;11.696;2023-02-11T16:01:17;6.30;72.30
17968;DHT22;9109;48.050;11.696;2023-02-11T16:04:21;6.20;73.50
17968;DHT22;9109;48.050;11.696;2023-02-11T16:07:38;6.10;72.70
17968;DHT22;9109;48.050;11.696;2023-02-11T16:10:53;6.20;73.10
17968;DHT22;9109;48.050;11.696;2023-02-11T16:13:58;6.10;72.50
17968;DHT22;9109;48.050;11.696;2023-02-11T16:17:04;6.10;73.80
17968;DHT22;9109;48.050;11.696;2023-02-11T16:20:17;6.10;72.80
17968;DHT22;9109;48.050;11.696;2023-02-11T16:23:22;6.00;72.80
17968;DHT22;9109;48.050;11.696;2023-02-11T16:26:29;6.00;73.00
17968;DHT22;9109;48.050;11.696;2023-02-11T16:29:32;5.90;72.90
17968;DHT22;9109;48.050;11.696;2023-02-11T16:32:37;5.80;73.20
17968;DHT22;9109;48.050;11.696;2023-02-11T16:35:39;5.70;73.60
17968;DHT22;9109;48.050;11.696;2023-02-11T16:38:44;5.60;74.60
17968;DHT22;9109;48.050;11.696;2023-02-11T16:41:46;5.60;75.60
17968;DHT22;9109;48.050;11.696;2023-02-11T16:44:50;5.60;76.40
17968;DHT22;9109;48.050;11.696;2023-02-11T16:47:53;5.50;76.70
17968;DHT22;9109;48.050;11.696;2023-02-11T16:50:55;5.50;76.40
17968;DHT22;9109;48.050;11.696;2023-02-11T16:53:56;5.50;78.00
17968;DHT22;9109;48.050;11.696;2023-02-11T16:56:58;5.40;77.10
17968;DHT22;9109;48.050;11.696;2023-02-11T17:00:00;5.40;78.30
17968;DHT22;9109;48.050;11.696;2023-02-11T17:03:05;5.30;79.10
17968;DHT22;9109;48.050;11.696;2023-02-11T17:06:09;5.20;79.30
17968;DHT22;9109;48.050;11.696;2023-02-11T17:09:17;5.10;79.40
17968;DHT22;9109;48.050;11.696;2023-02-11T17:12:19;5.00;80.30
17968;DHT22;9109;48.050;11.696;2023-02-11T17:15:21;4.80;80.30
17968;DHT22;9109;48.050;11.696;2023-02-11T17:18:25;4.80;81.60
17968;DHT22;9109;48.050;11.696;2023-02-11T17:21:26;4.80;82.30
17968;DHT22;9109;48.050;11.696;2023-02-11T17:24:31;4.70;83.70
17968;DHT22;9109;48.050;11.696;2023-02-11T17:27:33;4.60;84.90
17968;DHT22;9109;48.050;11.696;2023-02-11T17:30:35;4.50;83.80
17968;DHT22;9109;48.050;11.696;2023-02-11T17:33:38;4.40;83.70
17968;DHT22;9109;48.050;11.696;2023-02-11T17:36:40;4.40;84.20
17968;DHT22;9109;48.050;11.696;2023-02-11T17:39:42;4.30;84.70
17968;DHT22;9109;48.050;11.696;2023-02-11T17:42:44;4.20;87.00
17968;DHT22;9109;48.050;11.696;2023-02-11T17:45:46;4.20;88.20
17968;DHT22;9109;48.050;11.696;2023-02-11T17:48:49;4.20;88.70
17968;DHT22;9109;48.050;11.696;2023-02-11T17:51:52;4.10;89.30
17968;DHT22;9109;48.050;11.696;2023-02-11T17:54:54;4.10;90.30
17968;DHT22;9109;48.050;11.696;2023-02-11T17:57:57;4.10;90.30
17968;DHT22;9109;48.050;11.696;2023-02-11T18:00:59;4.00;90.50
17968;DHT22;9109;48.050;11.696;2023-02-11T18:04:03;4.00;90.70
17968;DHT22;9109;48.050;11.696;2023-02-11T18:07:05;4.00;90.80
17968;DHT22;9109;48.050;11.696;2023-02-11T18:10:08;4.00;90.90
17968;DHT22;9109;48.050;11.696;2023-02-11T18:13:10;3.90;90.80
17968;DHT22;9109;48.050;11.696;2023-02-11T18:16:12;3.90;90.70
17968;DHT22;9109;48.050;11.696;2023-02-11T18:19:16;3.70;90.60
17968;DHT22;9109;48.050;11.696;2023-02-11T18:22:18;3.60;90.60
17968;DHT22;9109;48.050;11.696;2023-02-11T18:25:20;3.60;91.10
17968;DHT22;9109;48.050;11.696;2023-02-11T18:28:22;3.60;91.10
17968;DHT22;9109;48.050;11.696;2023-02-11T18:31:25;3.60;91.00
17968;DHT22;9109;48.050;11.696;2023-02-11T18:34:28;3.50;91.00
17968;DHT22;9109;48.050;11.696;2023-02-11T18:37:31;3.50;91.80
17968;DHT22;9109;48.050;11.696;2023-02-11T18:40:33;3.50;92.20
17968;DHT22;9109;48.050;11.696;2023-02-11T18:43:35;3.50;92.40
17968;DHT22;9109;48.050;11.696;2023-02-11T18:46:37;3.50;92.10
17968;DHT22;9109;48.050;11.696;2023-02-11T18:49:40;3.30;91.60
17968;DHT22;9109;48.050;11.696;2023-02-11T18:52:42;3.10;91.80
17968;DHT22;9109;48.050;11.696;2023-02-11T18:55:44;3.10;92.50
17968;DHT22;9109;48.050;11.696;2023-02-11T18:58:47;3.10;93.00
17968;DHT22;9109;48.050;11.696;2023-02-11T19:01:48;3.00;93.20
17968;DHT22;9109;48.050;11.696;2023-02-11T19:04:52;3.10;93.60
17968;DHT22;9109;48.050;11.696;2023-02-11T19:07:55;3.00;93.60
17968;DHT22;9109;48.050;11.696;2023-02-11T19:10:57;2.90;93.90
17968;DHT22;9109;48.050;11.696;2023-02-11T19:13:59;2.90;93.80
17968;DHT22;9109;48.050;11.696;2023-02-11T19:17:04;2.90;93.90
17968;DHT22;9109;48.050;11.696;2023-02-11T19:20:08;2.90;94.00
17968;DHT22;9109;48.050;11.696;2023-02-11T19:23:10;2.80;93.80
17968;DHT22;9109;48.050;11.696;2023-02-11T19:26:12;2.80;93.90
17968;DHT22;9109;48.050;11.696;2023-02-11T19:29:14;2.60;94.10
17968;DHT22;9109;48.050;11.696;2023-02-11T19:32:16;2.50;94.10
17968;DHT22;9109;48.050;11.696;2023-02-11T19:35:19;2.50;94.30
17968;DHT22;9109;48.050;11.696;2023-02-11T19:38:21;2.50;94.40
17968;DHT22;9109;48.050;11.696;2023-02-11T19:41:23;2.50;94.40
17968;DHT22;9109;48.050;11.696;2023-02-11T19:44:25;2.50;94.40
17968;DHT22;9109;48.050;11.696;2023-02-11T19:47:27;2.40;94.70
17968;DHT22;9109;48.050;11.696;2023-02-11T19:50:30;2.40;95.10
17968;DHT22;9109;48.050;11.696;2023-02-11T19:53:33;2.50;95.40
17968;DHT22;9109;48.050;11.696;2023-02-11T19:56:34;2.50;95.80
17968;DHT22;9109;48.050;11.696;2023-02-11T19:59:37;2.50;95.90
17968;DHT22;9109;48.050;11.696;2023-02-11T20:02:39;2.60;95.90
17968;DHT22;9109;48.050;11.696;2023-02-11T20:05:42;2.60;95.80
17968;DHT22;9109;48.050;11.696;2023-02-11T20:08:47;2.60;95.80
17968;DHT22;9109;48.050;11.696;2023-02-11T20:11:49;2.70;96.30
17968;DHT22;9109;48.050;11.696;2023-02-11T20:14:51;2.70;95.90
17968;DHT22;9109;48.050;11.696;2023-02-11T20:17:53;2.80;96.60
17968;DHT22;9109;48.050;11.696;2023-02-11T20:20:56;2.90;96.50
17968;DHT22;9109;48.050;11.696;2023-02-11T20:24:01;2.90;96.00
17968;DHT22;9109;48.050;11.696;2023-02-11T20:27:03;2.90;95.50
17968;DHT22;9109;48.050;11.696;2023-02-11T20:30:08;3.00;96.10
17968;DHT22;9109;48.050;11.696;2023-02-11T20:33:11;3.00;96.80
17968;DHT22;9109;48.050;11.696;2023-02-11T20:36:15;3.10;96.90
17968;DHT22;9109;48.050;11.696;2023-02-11T20:39:19;3.10;96.50
17968;DHT22;9109;48.050;11.696;2023-02-11T20:42:21;3.00;95.50
17968;DHT22;9109;48.050;11.696;2023-02-11T20:45:23;2.70;94.90
17968;DHT22;9109;48.050;11.696;2023-02-11T20:48:25;2.70;95.50
17968;DHT22;9109;48.050;11.696;2023-02-11T20:51:30;2.60;95.50
17968;DHT22;9109;48.050;11.696;2023-02-11T20:54:33;2.70;96.80
17968;DHT22;9109;48.050;11.696;2023-02-11T20:57:35;2.90;98.10
17968;DHT22;9109;48.050;11.696;2023-02-11T21:00:36;3.10;98.90
17968;DHT22;9109;48.050;11.696;2023-02-11T21:03:38;3.20;98.70
17968;DHT22;9109;48.050;11.696;2023-02-11T21:06:46;3.20;98.50
17968;DHT22;9109;48.050;11.696;2023-02-11T21:09:48;3.30;98.60
17968;DHT22;9109;48.050;11.696;2023-02-11T21:12:50;3.40;98.60
17968;DHT22;9109;48.050;11.696;2023-02-11T21:15:52;3.40;98.50
17968;DHT22;9109;48.050;11.696;2023-02-11T21:18:56;3.50;98.60
17968;DHT22;9109;48.050;11.696;2023-02-11T21:21:59;3.40;98.50
17968;DHT22;9109;48.050;11.696;2023-02-11T21:25:01;3.40;98.80
17968;DHT22;9109;48.050;11.696;2023-02-11T21:28:05;3.40;98.70
17968;DHT22;9109;48.050;11.696;2023-02-11T21:31:07;3.30;98.50
17968;DHT22;9109;48.050;11.696;2023-02-11T21:34:09;3.30;98.80
17968;DHT22;9109;48.050;11.696;2023-02-11T21:37:13;3.30;99.20
17968;DHT22;9109;48.050;11.696;2023-02-11T21:40:15;3.40;99.70
17968;DHT22;9109;48.050;11.696;2023-02-11T21:43:17;3.50;99.70
17968;DHT22;9109;48.050;11.696;2023-02-11T21:46:20;3.50;99.50
17968;DHT22;9109;48.050;11.696;2023-02-11T21:49:22;3.60;99.20
17968;DHT22;9109;48.050;11.696;2023-02-11T21:52:25;3.50;98.90
17968;DHT22;9109;48.050;11.696;2023-02-11T21:55:29;3.50;98.90
17968;DHT22;9109;48.050;11.696;2023-02-11T21:58:31;3.60;99.10
17968;DHT22;9109;48.050;11.696;2023-02-11T22:01:33;3.60;99.20
17968;DHT22;9109;48.050;11.696;2023-02-11T22:04:36;3.60;99.10
17968;DHT22;9109;48.050;11.696;2023-02-11T22:07:39;3.60;99.10
17968;DHT22;9109;48.050;11.696;2023-02-11T22:10:41;3.50;98.50
17968;DHT22;9109;48.050;11.696;2023-02-11T22:13:44;3.40;98.70
17968;DHT22;9109;48.050;11.696;2023-02-11T22:16:46;3.40;99.00
17968;DHT22;9109;48.050;11.696;2023-02-11T22:19:48;3.30;99.00
17968;DHT22;9109;48.050;11.696;2023-02-11T22:22:51;3.20;98.80
17968;DHT22;9109;48.050;11.696;2023-02-11T22:25:54;3.20;98.80
17968;DHT22;9109;48.050;11.696;2023-02-11T22:28:56;3.20;98.80
17968;DHT22;9109;48.050;11.696;2023-02-11T22:31:58;3.20;98.80
17968;DHT22;9109;48.050;11.696;2023-02-11T22:35:00;3.20;98.90
17968;DHT22;9109;48.050;11.696;2023-02-11T22:38:03;3.20;99.30
17968;DHT22;9109;48.050;11.696;2023-02-11T22:41:08;3.20;99.40
17968;DHT22;9109;48.050;11.696;2023-02-11T22:44:10;3.20;99.30
17968;DHT22;9109;48.050;11.696;2023-02-11T22:47:12;3.10;99.00
17968;DHT22;9109;48.050;11.696;2023-02-11T22:50:15;3.10;99.20
17968;DHT22;9109;48.050;11.696;2023-02-11T22:53:18;3.20;99.40
17968;DHT22;9109;48.050;11.696;2023-02-11T22:56:20;3.20;99.40
17968;DHT22;9109;48.050;11.696;2023-02-11T22:59:22;3.10;99.20
17968;DHT22;9109;48.050;11.696;2023-02-11T23:02:24;3.10;99.40
17968;DHT22;9109;48.050;11.696;2023-02-11T23:05:26;3.20;99.90
17968;DHT22;9109;48.050;11.696;2023-02-11T23:08:31;3.40;99.90
17968;DHT22;9109;48.050;11.696;2023-02-11T23:11:33;3.40;99.90
17968;DHT22;9109;48.050;11.696;2023-02-11T23:14:35;3.40;99.90
17968;DHT22;9109;48.050;11.696;2023-02-11T23:17:37;3.40;99.90
17968;DHT22;9109;48.050;11.696;2023-02-11T23:20:41;3.30;99.90
17968;DHT22;9109;48.050;11.696;2023-02-11T23:23:45;3.30;99.90
17968;DHT22;9109;48.050;11.696;2023-02-11T23:26:47;3.30;99.90
17968;DHT22;9109;48.050;11.696;2023-02-11T23:29:49;3.40;99.90
17968;DHT22;9109;48.050;11.696;2023-02-11T23:32:51;3.50;99.90
17968;DHT22;9109;48.050;11.696;2023-02-11T23:35:53;3.50;99.90
17968;DHT22;9109;48.050;11.696;2023-02-11T23:38:56;3.50;99.90
17968;DHT22;9109;48.050;11.696;2023-02-11T23:41:58;3.40;99.90
17968;DHT22;9109;48.050;11.696;2023-02-11T23:45:01;3.30;99.90
17968;DHT22;9109;48.050;11.696;2023-02-11T23:48:04;3.40;99.90
17968;DHT22;9109;48.050;11.696;2023-02-11T23:51:10;3.30;99.90
17968;DHT22;9109;48.050;11.696;2023-02-11T23:54:14;3.20;99.90
17968;DHT22;9109;48.050;11.696;2023-02-11T23:57:22;3.30;99.90
